sensor_id;sensor_type;location;lat;lon;timestamp;pressure;altitude;pressure_sealevel;temperature;humidity
57562;BME280;43397;51.530;5.974;2022-07-10T00:00:41;102378.25;;;15.88;77.90
57562;BME280;43397;51.530;5.974;2022-07-10T00:03:07;102377.47;;;15.59;78.70
57562;BME280;43397;51.530;5.974;2022-07-10T00:05:32;102375.75;;;15.46;79.30
57562;BME280;43397;51.530;5.974;2022-07-10T00:07:58;102375.78;;;15.38;80.18
57562;BME280;43397;51.530;5.974;2022-07-10T00:10:24;102370.38;;;15.51;79.53
57562;BME280;43397;51.530;5.974;2022-07-10T00:12:51;102372.16;;;15.52;79.24
57562;BME280;43397;51.530;5.974;2022-07-10T00:15:18;102368.50;;;15.65;79.36
57562;BME280;43397;51.530;5.974;2022-07-10T00:20:12;102369.50;;;15.41;80.39
57562;BME280;43397;51.530;5.974;2022-07-10T00:22:39;102360.53;;;15.51;83.28
57562;BME280;43397;51.530;5.974;2022-07-10T00:25:06;102364.09;;;15.53;80.09
57562;BME280;43397;51.530;5.974;2022-07-10T00:27:33;102367.75;;;15.37;80.21
57562;BME280;43397;51.530;5.974;2022-07-10T00:29:59;102363.22;;;15.53;79.43
57562;BME280;43397;51.530;5.974;2022-07-10T00:32:26;102367.69;;;15.49;80.06
57562;BME280;43397;51.530;5.974;2022-07-10T00:34:52;102365.03;;;15.51;80.23
57562;BME280;43397;51.530;5.974;2022-07-10T00:37:18;102363.25;;;15.45;81.25
57562;BME280;43397;51.530;5.974;2022-07-10T00:42:11;102361.41;;;15.56;80.39
57562;BME280;43397;51.530;5.974;2022-07-10T00:44:37;102358.66;;;15.76;79.11
57562;BME280;43397;51.530;5.974;2022-07-10T00:47:04;102354.22;;;15.63;79.04
57562;BME280;43397;51.530;5.974;2022-07-10T00:49:32;102357.84;;;15.48;80.55
57562;BME280;43397;51.530;5.974;2022-07-10T00:51:59;102356.94;;;15.60;80.18
57562;BME280;43397;51.530;5.974;2022-07-10T00:54:26;102349.72;;;15.79;80.06
57562;BME280;43397;51.530;5.974;2022-07-10T00:56:52;102353.31;;;15.66;79.17
57562;BME280;43397;51.530;5.974;2022-07-10T00:59:18;102356.00;;;15.69;79.30
57562;BME280;43397;51.530;5.974;2022-07-10T01:04:10;102338.09;;;15.69;80.09
57562;BME280;43397;51.530;5.974;2022-07-10T01:06:37;102336.34;;;15.71;80.29
57562;BME280;43397;51.530;5.974;2022-07-10T01:09:03;102323.97;;;15.42;80.69
57562;BME280;43397;51.530;5.974;2022-07-10T01:11:30;102333.75;;;15.50;81.16
57562;BME280;43397;51.530;5.974;2022-07-10T01:13:57;102329.25;;;15.56;80.69
57562;BME280;43397;51.530;5.974;2022-07-10T01:16:22;102329.31;;;15.41;80.28
57562;BME280;43397;51.530;5.974;2022-07-10T01:18:48;102323.84;;;15.61;79.86
57562;BME280;43397;51.530;5.974;2022-07-10T01:21:25;102330.06;;;15.71;78.85
57562;BME280;43397;51.530;5.974;2022-07-10T01:23:51;102322.88;;;15.82;78.89
57562;BME280;43397;51.530;5.974;2022-07-10T01:26:17;102318.50;;;15.61;79.80
57562;BME280;43397;51.530;5.974;2022-07-10T01:31:08;102312.31;;;15.48;82.26
57562;BME280;43397;51.530;5.974;2022-07-10T01:33:34;102316.81;;;15.43;80.95
57562;BME280;43397;51.530;5.974;2022-07-10T01:36:00;102315.09;;;15.31;81.92
57562;BME280;43397;51.530;5.974;2022-07-10T01:38:27;102314.19;;;15.31;82.59
57562;BME280;43397;51.530;5.974;2022-07-10T01:40:55;102309.72;;;15.37;82.09
57562;BME280;43397;51.530;5.974;2022-07-10T01:43:20;102311.44;;;15.41;80.77
57562;BME280;43397;51.530;5.974;2022-07-10T01:45:46;102304.41;;;15.19;82.49
57562;BME280;43397;51.530;5.974;2022-07-10T01:48:12;102306.25;;;15.08;83.12
57562;BME280;43397;51.530;5.974;2022-07-10T01:50:38;102300.91;;;15.09;84.17
57562;BME280;43397;51.530;5.974;2022-07-10T01:53:04;102290.97;;;15.30;82.24
57562;BME280;43397;51.530;5.974;2022-07-10T01:55:31;102303.53;;;15.18;83.02
57562;BME280;43397;51.530;5.974;2022-07-10T01:57:57;102300.91;;;15.01;84.96
57562;BME280;43397;51.530;5.974;2022-07-10T02:00:23;102297.34;;;15.02;84.45
57562;BME280;43397;51.530;5.974;2022-07-10T02:02:49;102292.97;;;14.72;86.38
57562;BME280;43397;51.530;5.974;2022-07-10T02:05:15;102299.13;;;15.02;84.56
57562;BME280;43397;51.530;5.974;2022-07-10T02:07:41;102296.34;;;15.31;83.00
57562;BME280;43397;51.530;5.974;2022-07-10T02:10:07;102301.78;;;15.16;83.74
57562;BME280;43397;51.530;5.974;2022-07-10T02:12:34;102301.81;;;15.00;85.39
57562;BME280;43397;51.530;5.974;2022-07-10T02:15:00;102295.63;;;14.88;87.09
57562;BME280;43397;51.530;5.974;2022-07-10T02:17:26;102292.00;;;14.95;86.42
57562;BME280;43397;51.530;5.974;2022-07-10T02:19:52;102296.41;;;15.13;85.09
57562;BME280;43397;51.530;5.974;2022-07-10T02:22:18;102301.81;;;14.96;86.53
57562;BME280;43397;51.530;5.974;2022-07-10T02:27:09;102293.81;;;14.88;86.16
57562;BME280;43397;51.530;5.974;2022-07-10T02:29:36;102298.28;;;14.78;86.35
57562;BME280;43397;51.530;5.974;2022-07-10T02:32:02;102296.50;;;14.80;86.30
57562;BME280;43397;51.530;5.974;2022-07-10T02:34:28;102298.31;;;14.74;85.93
57562;BME280;43397;51.530;5.974;2022-07-10T02:36:53;102290.22;;;14.89;84.42
57562;BME280;43397;51.530;5.974;2022-07-10T02:39:19;102290.25;;;14.85;85.57
57562;BME280;43397;51.530;5.974;2022-07-10T02:41:45;102288.38;;;15.07;84.13
57562;BME280;43397;51.530;5.974;2022-07-10T02:44:11;102290.25;;;14.86;83.82
57562;BME280;43397;51.530;5.974;2022-07-10T02:46:38;102286.66;;;14.96;84.69
57562;BME280;43397;51.530;5.974;2022-07-10T02:49:04;102291.13;;;14.91;84.08
57562;BME280;43397;51.530;5.974;2022-07-10T02:51:30;102297.38;;;14.95;83.93
57562;BME280;43397;51.530;5.974;2022-07-10T02:53:56;102293.75;;;15.11;83.70
57562;BME280;43397;51.530;5.974;2022-07-10T02:56:21;102290.16;;;15.14;83.11
57562;BME280;43397;51.530;5.974;2022-07-10T02:58:47;102289.31;;;14.99;83.80
57562;BME280;43397;51.530;5.974;2022-07-10T03:01:13;102279.56;;;14.88;83.62
57562;BME280;43397;51.530;5.974;2022-07-10T03:03:40;102287.53;;;14.95;84.08
57562;BME280;43397;51.530;5.974;2022-07-10T03:06:06;102287.59;;;14.81;85.37
57562;BME280;43397;51.530;5.974;2022-07-10T03:08:32;102276.00;;;14.78;85.13
57562;BME280;43397;51.530;5.974;2022-07-10T03:10:58;102290.22;;;15.01;84.48
57562;BME280;43397;51.530;5.974;2022-07-10T03:13:24;102286.66;;;14.96;84.54
57562;BME280;43397;51.530;5.974;2022-07-10T03:15:49;102287.59;;;14.81;86.08
57562;BME280;43397;51.530;5.974;2022-07-10T03:18:15;102284.88;;;14.97;84.72
57562;BME280;43397;51.530;5.974;2022-07-10T03:23:08;102275.97;;;14.92;85.29
57562;BME280;43397;51.530;5.974;2022-07-10T03:25:34;102276.84;;;14.91;85.43
57562;BME280;43397;51.530;5.974;2022-07-10T03:27:59;102277.81;;;14.68;86.68
57562;BME280;43397;51.530;5.974;2022-07-10T03:30:25;102278.69;;;14.75;86.31
57562;BME280;43397;51.530;5.974;2022-07-10T03:32:51;102281.38;;;14.70;86.35
57562;BME280;43397;51.530;5.974;2022-07-10T03:35:17;102276.03;;;14.53;86.93
57562;BME280;43397;51.530;5.974;2022-07-10T03:40:10;102269.81;;;14.57;87.44
57562;BME280;43397;51.530;5.974;2022-07-10T03:42:36;102263.56;;;14.65;87.71
57562;BME280;43397;51.530;5.974;2022-07-10T03:45:03;102267.13;;;14.51;88.01
57562;BME280;43397;51.530;5.974;2022-07-10T03:47:28;102266.25;;;14.45;87.79
57562;BME280;43397;51.530;5.974;2022-07-10T03:49:54;102266.25;;;14.55;87.31
57562;BME280;43397;51.530;5.974;2022-07-10T03:52:20;102266.25;;;14.38;88.89
57562;BME280;43397;51.530;5.974;2022-07-10T03:54:46;102263.56;;;14.58;86.85
57562;BME280;43397;51.530;5.974;2022-07-10T03:57:13;102265.31;;;14.81;86.51
57562;BME280;43397;51.530;5.974;2022-07-10T03:59:39;102263.53;;;14.69;87.77
57562;BME280;43397;51.530;5.974;2022-07-10T04:02:05;102271.56;;;14.71;88.01
57562;BME280;43397;51.530;5.974;2022-07-10T04:04:31;102263.50;;;14.86;86.51
57562;BME280;43397;51.530;5.974;2022-07-10T04:06:57;102269.78;;;14.67;88.63
57562;BME280;43397;51.530;5.974;2022-07-10T04:09:23;102269.78;;;14.70;89.36
57562;BME280;43397;51.530;5.974;2022-07-10T04:11:50;102268.84;;;14.86;87.59
57562;BME280;43397;51.530;5.974;2022-07-10T04:14:17;102267.06;;;14.88;87.68
57562;BME280;43397;51.530;5.974;2022-07-10T04:19:08;102276.88;;;14.78;87.88
57562;BME280;43397;51.530;5.974;2022-07-10T04:21:34;102267.00;;;14.97;88.36
57562;BME280;43397;51.530;5.974;2022-07-10T04:24:00;102266.13;;;14.95;86.80
57562;BME280;43397;51.530;5.974;2022-07-10T04:26:26;102275.97;;;14.96;86.98
57562;BME280;43397;51.530;5.974;2022-07-10T04:28:52;102271.53;;;14.81;88.04
57562;BME280;43397;51.530;5.974;2022-07-10T04:31:19;102271.50;;;14.91;87.50
57562;BME280;43397;51.530;5.974;2022-07-10T04:36:10;102267.97;;;14.79;88.23
57562;BME280;43397;51.530;5.974;2022-07-10T04:38:36;102266.19;;;14.83;87.89
57562;BME280;43397;51.530;5.974;2022-07-10T04:41:02;102267.94;;;14.90;87.78
57562;BME280;43397;51.530;5.974;2022-07-10T04:43:27;102270.63;;;14.92;88.82
57562;BME280;43397;51.530;5.974;2022-07-10T04:45:55;102269.66;;;15.11;87.43
57562;BME280;43397;51.530;5.974;2022-07-10T04:48:22;102274.13;;;15.06;86.98
57562;BME280;43397;51.530;5.974;2022-07-10T04:50:48;102264.28;;;15.07;86.95
57562;BME280;43397;51.530;5.974;2022-07-10T04:53:14;102272.28;;;15.20;86.17
57562;BME280;43397;51.530;5.974;2022-07-10T04:55:39;102266.09;;;15.01;88.67
57562;BME280;43397;51.530;5.974;2022-07-10T04:58:07;102282.19;;;14.98;87.57
57562;BME280;43397;51.530;5.974;2022-07-10T05:00:33;102286.59;;;15.16;87.62
57562;BME280;43397;51.530;5.974;2022-07-10T05:02:58;102285.72;;;15.02;87.53
57562;BME280;43397;51.530;5.974;2022-07-10T05:05:26;102283.03;;;15.10;87.73
57562;BME280;43397;51.530;5.974;2022-07-10T05:07:51;102283.03;;;15.08;88.50
57562;BME280;43397;51.530;5.974;2022-07-10T05:10:18;102282.94;;;15.28;87.90
57562;BME280;43397;51.530;5.974;2022-07-10T05:15:09;102287.41;;;15.29;88.03
57562;BME280;43397;51.530;5.974;2022-07-10T05:17:36;102282.88;;;15.45;86.67
57562;BME280;43397;51.530;5.974;2022-07-10T05:20:02;102272.19;;;15.34;88.27
57562;BME280;43397;51.530;5.974;2022-07-10T05:22:29;102278.41;;;15.39;87.66
57562;BME280;43397;51.530;5.974;2022-07-10T05:24:55;102276.69;;;15.34;91.51
57562;BME280;43397;51.530;5.974;2022-07-10T05:27:21;102277.38;;;15.68;87.53
57562;BME280;43397;51.530;5.974;2022-07-10T05:29:46;102282.81;;;15.54;86.70
57562;BME280;43397;51.530;5.974;2022-07-10T05:32:12;102287.28;;;15.55;87.35
57562;BME280;43397;51.530;5.974;2022-07-10T05:34:38;102289.97;;;15.52;87.77
57562;BME280;43397;51.530;5.974;2022-07-10T05:37:04;102278.34;;;15.50;88.27
57562;BME280;43397;51.530;5.974;2022-07-10T05:39:32;102280.22;;;15.42;88.95
57562;BME280;43397;51.530;5.974;2022-07-10T05:41:58;102286.44;;;15.46;87.65
57562;BME280;43397;51.530;5.974;2022-07-10T05:44:23;102290.03;;;15.45;88.55
57562;BME280;43397;51.530;5.974;2022-07-10T05:46:49;102282.06;;;15.29;89.07
57562;BME280;43397;51.530;5.974;2022-07-10T05:49:15;102287.38;;;15.38;88.54
57562;BME280;43397;51.530;5.974;2022-07-10T05:51:41;102281.19;;;15.27;88.89
57562;BME280;43397;51.530;5.974;2022-07-10T05:54:07;102276.69;;;15.34;89.35
57562;BME280;43397;51.530;5.974;2022-07-10T05:56:35;102285.53;;;15.45;88.23
57562;BME280;43397;51.530;5.974;2022-07-10T05:59:00;102283.75;;;15.47;88.25
57562;BME280;43397;51.530;5.974;2022-07-10T06:01:26;102282.91;;;15.42;88.52
57562;BME280;43397;51.530;5.974;2022-07-10T06:03:53;102278.41;;;15.41;88.95
57562;BME280;43397;51.530;5.974;2022-07-10T06:06:18;102286.41;;;15.55;88.45
57562;BME280;43397;51.530;5.974;2022-07-10T06:11:10;102284.56;;;15.61;86.76
57562;BME280;43397;51.530;5.974;2022-07-10T06:13:37;102286.44;;;15.41;87.73
57562;BME280;43397;51.530;5.974;2022-07-10T06:16:04;102290.00;;;15.51;88.20
57562;BME280;43397;51.530;5.974;2022-07-10T06:18:30;102297.06;;;15.61;88.63
57562;BME280;43397;51.530;5.974;2022-07-10T06:20:56;102297.97;;;15.61;87.13
57562;BME280;43397;51.530;5.974;2022-07-10T06:23:23;102300.63;;;15.64;86.71
57562;BME280;43397;51.530;5.974;2022-07-10T06:25:48;102294.44;;;15.55;88.06
57562;BME280;43397;51.530;5.974;2022-07-10T06:28:14;102292.53;;;15.74;87.95
57562;BME280;43397;51.530;5.974;2022-07-10T06:30:41;102291.59;;;15.86;87.55
57562;BME280;43397;51.530;5.974;2022-07-10T06:33:07;102288.88;;;15.92;86.46
57562;BME280;43397;51.530;5.974;2022-07-10T06:35:35;102287.88;;;16.05;85.42
57562;BME280;43397;51.530;5.974;2022-07-10T06:38:02;102281.69;;;15.92;86.73
57562;BME280;43397;51.530;5.974;2022-07-10T06:40:28;102283.44;;;15.99;87.71
57562;BME280;43397;51.530;5.974;2022-07-10T06:42:54;102293.19;;;16.07;87.07
57562;BME280;43397;51.530;5.974;2022-07-10T06:45:20;102285.97;;;16.13;85.93
57562;BME280;43397;51.530;5.974;2022-07-10T06:47:48;102294.78;;;16.32;85.51
57562;BME280;43397;51.530;5.974;2022-07-10T06:50:14;102287.66;;;16.28;84.56
57562;BME280;43397;51.530;5.974;2022-07-10T06:52:40;102284.03;;;16.31;85.27
57562;BME280;43397;51.530;5.974;2022-07-10T06:55:06;102287.66;;;16.31;85.18
57562;BME280;43397;51.530;5.974;2022-07-10T06:57:32;102289.44;;;16.26;85.23
57562;BME280;43397;51.530;5.974;2022-07-10T06:59:58;102299.25;;;16.33;85.39
57562;BME280;43397;51.530;5.974;2022-07-10T07:02:24;102295.69;;;16.31;85.06
57562;BME280;43397;51.530;5.974;2022-07-10T07:04:51;102292.03;;;16.37;85.09
57562;BME280;43397;51.530;5.974;2022-07-10T07:07:17;102293.78;;;16.44;84.36
57562;BME280;43397;51.530;5.974;2022-07-10T07:12:08;102288.34;;;16.50;85.18
57562;BME280;43397;51.530;5.974;2022-07-10T07:14:34;102287.41;;;16.56;84.31
57562;BME280;43397;51.530;5.974;2022-07-10T07:17:00;102297.09;;;16.67;83.69
57562;BME280;43397;51.530;5.974;2022-07-10T07:19:26;102295.44;;;16.57;83.85
57562;BME280;43397;51.530;5.974;2022-07-10T07:21:55;102299.84;;;16.64;84.32
57562;BME280;43397;51.530;5.974;2022-07-10T07:24:21;102292.66;;;16.66;84.84
57562;BME280;43397;51.530;5.974;2022-07-10T07:26:47;102297.88;;;16.82;83.10
57562;BME280;43397;51.530;5.974;2022-07-10T07:29:13;102304.28;;;16.67;84.43
57562;BME280;43397;51.530;5.974;2022-07-10T07:31:39;102297.16;;;16.64;84.27
57562;BME280;43397;51.530;5.974;2022-07-10T07:34:05;102299.72;;;16.77;83.56
57562;BME280;43397;51.530;5.974;2022-07-10T07:36:31;102297.91;;;16.77;83.92
57562;BME280;43397;51.530;5.974;2022-07-10T07:38:58;102298.03;;;16.66;85.32
57562;BME280;43397;51.530;5.974;2022-07-10T07:41:24;102291.94;;;16.51;84.61
57562;BME280;43397;51.530;5.974;2022-07-10T07:43:50;102301.59;;;16.69;84.09
57562;BME280;43397;51.530;5.974;2022-07-10T07:46:16;102306.91;;;16.75;83.50
57562;BME280;43397;51.530;5.974;2022-07-10T07:48:42;102289.09;;;16.63;83.92
57562;BME280;43397;51.530;5.974;2022-07-10T07:51:11;102290.75;;;16.76;83.34
57562;BME280;43397;51.530;5.974;2022-07-10T07:53:36;102288.03;;;16.82;83.02
57562;BME280;43397;51.530;5.974;2022-07-10T07:56:04;102295.13;;;16.88;82.93
57562;BME280;43397;51.530;5.974;2022-07-10T07:58:30;102294.19;;;16.92;82.82
57562;BME280;43397;51.530;5.974;2022-07-10T08:00:56;102292.22;;;17.06;82.80
57562;BME280;43397;51.530;5.974;2022-07-10T08:03:22;102290.66;;;16.89;82.75
57562;BME280;43397;51.530;5.974;2022-07-10T08:05:48;102295.84;;;17.05;82.35
57562;BME280;43397;51.530;5.974;2022-07-10T08:08:13;102286.72;;;17.16;82.36
57562;BME280;43397;51.530;5.974;2022-07-10T08:10:39;102295.66;;;17.18;82.41
57562;BME280;43397;51.530;5.974;2022-07-10T08:13:07;102294.69;;;17.23;80.37
57562;BME280;43397;51.530;5.974;2022-07-10T08:15:32;102291.38;;;17.03;82.35
57562;BME280;43397;51.530;5.974;2022-07-10T08:17:58;102289.41;;;17.16;82.08
57562;BME280;43397;51.530;5.974;2022-07-10T08:20:25;102292.28;;;17.02;82.53
57562;BME280;43397;51.530;5.974;2022-07-10T08:22:52;102299.41;;;17.06;82.55
57562;BME280;43397;51.530;5.974;2022-07-10T08:25:18;102291.22;;;17.17;82.57
57562;BME280;43397;51.530;5.974;2022-07-10T08:30:11;102304.69;;;17.12;83.45
57562;BME280;43397;51.530;5.974;2022-07-10T08:32:39;102302.94;;;17.10;83.79
57562;BME280;43397;51.530;5.974;2022-07-10T08:35:06;102305.44;;;17.23;83.90
57562;BME280;43397;51.530;5.974;2022-07-10T08:37:37;102301.00;;;17.22;82.02
57562;BME280;43397;51.530;5.974;2022-07-10T08:40:03;102298.19;;;17.30;81.12
57562;BME280;43397;51.530;5.974;2022-07-10T08:42:32;102297.34;;;17.26;82.26
57562;BME280;43397;51.530;5.974;2022-07-10T08:44:58;102301.16;;;17.09;83.99
57562;BME280;43397;51.530;5.974;2022-07-10T08:47:25;102303.63;;;17.25;83.63
57562;BME280;43397;51.530;5.974;2022-07-10T08:49:51;102298.91;;;17.44;82.63
57562;BME280;43397;51.530;5.974;2022-07-10T08:52:25;102300.66;;;17.48;82.36
57562;BME280;43397;51.530;5.974;2022-07-10T08:54:51;102292.63;;;17.44;83.44
57562;BME280;43397;51.530;5.974;2022-07-10T08:57:18;102287.91;;;17.61;80.99
57562;BME280;43397;51.530;5.974;2022-07-10T09:02:10;102292.16;;;17.76;79.81
57562;BME280;43397;51.530;5.974;2022-07-10T09:04:37;102299.41;;;17.71;80.61
57562;BME280;43397;51.530;5.974;2022-07-10T09:07:03;102286.84;;;17.73;79.53
57562;BME280;43397;51.530;5.974;2022-07-10T09:09:29;102292.16;;;17.76;81.96
57562;BME280;43397;51.530;5.974;2022-07-10T09:11:56;102289.53;;;17.75;80.88
57562;BME280;43397;51.530;5.974;2022-07-10T09:14:22;102298.66;;;17.61;81.99
57562;BME280;43397;51.530;5.974;2022-07-10T09:16:50;102294.34;;;17.51;82.45
57562;BME280;43397;51.530;5.974;2022-07-10T09:19:18;102292.53;;;17.52;81.44
57562;BME280;43397;51.530;5.974;2022-07-10T09:24:10;102285.03;;;17.75;81.54
57562;BME280;43397;51.530;5.974;2022-07-10T09:26:37;102288.03;;;17.54;82.03
57562;BME280;43397;51.530;5.974;2022-07-10T09:29:08;102273.41;;;17.73;81.97
57562;BME280;43397;51.530;5.974;2022-07-10T09:34:08;102274.44;;;17.63;80.71
57562;BME280;43397;51.530;5.974;2022-07-10T09:36:34;102271.09;;;17.47;81.77
57562;BME280;43397;51.530;5.974;2022-07-10T09:39:00;102268.41;;;17.45;79.87
57562;BME280;43397;51.530;5.974;2022-07-10T09:41:29;102273.94;;;17.36;82.01
57562;BME280;43397;51.530;5.974;2022-07-10T09:43:56;102274.06;;;17.27;83.65
57562;BME280;43397;51.530;5.974;2022-07-10T09:46:24;102266.03;;;17.25;83.76
57562;BME280;43397;51.530;5.974;2022-07-10T09:49:13;102256.09;;;17.31;83.19
57562;BME280;43397;51.530;5.974;2022-07-10T09:51:40;102255.91;;;17.44;83.77
57562;BME280;43397;51.530;5.974;2022-07-10T09:54:07;102261.09;;;17.57;85.75
57562;BME280;43397;51.530;5.974;2022-07-10T09:56:41;102248.19;;;17.80;84.19
57562;BME280;43397;51.530;5.974;2022-07-10T09:59:09;102245.88;;;18.12;85.11
57562;BME280;43397;51.530;5.974;2022-07-10T10:01:36;102249.78;;;18.45;82.35
57562;BME280;43397;51.530;5.974;2022-07-10T10:04:03;102245.00;;;19.06;77.76
57562;BME280;43397;51.530;5.974;2022-07-10T10:06:30;102245.34;;;19.31;76.47
57562;BME280;43397;51.530;5.974;2022-07-10T10:08:58;102237.44;;;19.62;77.82
57562;BME280;43397;51.530;5.974;2022-07-10T10:11:27;102242.66;;;19.68;76.17
57562;BME280;43397;51.530;5.974;2022-07-10T10:13:54;102236.97;;;19.45;74.29
57562;BME280;43397;51.530;5.974;2022-07-10T10:16:21;102234.78;;;19.61;75.99
57562;BME280;43397;51.530;5.974;2022-07-10T10:18:48;102233.47;;;19.40;74.61
57562;BME280;43397;51.530;5.974;2022-07-10T10:21:15;102239.81;;;19.37;75.63
57562;BME280;43397;51.530;5.974;2022-07-10T10:23:41;102235.47;;;18.89;76.21
57562;BME280;43397;51.530;5.974;2022-07-10T10:26:07;102242.66;;;18.89;77.03
57562;BME280;43397;51.530;5.974;2022-07-10T10:28:33;102244.88;;;18.67;77.70
57562;BME280;43397;51.530;5.974;2022-07-10T10:31:01;102245.63;;;18.74;77.68
57562;BME280;43397;51.530;5.974;2022-07-10T10:36:11;102237.69;;;18.66;77.39
57562;BME280;43397;51.530;5.974;2022-07-10T10:41:24;102230.59;;;19.07;74.73
57562;BME280;43397;51.530;5.974;2022-07-10T10:44:19;102226.81;;;19.16;76.20
57562;BME280;43397;51.530;5.974;2022-07-10T10:49:10;102226.91;;;19.13;75.88
57562;BME280;43397;51.530;5.974;2022-07-10T10:54:10;102228.03;;;19.80;71.81
57562;BME280;43397;51.530;5.974;2022-07-10T10:56:36;102223.59;;;20.13;73.77
57562;BME280;43397;51.530;5.974;2022-07-10T10:59:02;102220.88;;;20.48;73.44
57562;BME280;43397;51.530;5.974;2022-07-10T11:01:29;102223.53;;;20.49;73.69
57562;BME280;43397;51.530;5.974;2022-07-10T11:04:14;102218.66;;;20.29;67.83
57562;BME280;43397;51.530;5.974;2022-07-10T11:06:40;102221.88;;;20.11;69.30
57562;BME280;43397;51.530;5.974;2022-07-10T11:09:24;102224.44;;;20.16;70.58
57562;BME280;43397;51.530;5.974;2022-07-10T11:11:58;102227.69;;;19.94;71.29
57562;BME280;43397;51.530;5.974;2022-07-10T11:14:24;102219.41;;;20.02;69.72
57562;BME280;43397;51.530;5.974;2022-07-10T11:16:53;102211.06;;;20.11;71.33
57562;BME280;43397;51.530;5.974;2022-07-10T11:19:23;102218.56;;;20.34;70.19
57562;BME280;43397;51.530;5.974;2022-07-10T11:21:59;102208.50;;;20.39;70.27
57562;BME280;43397;51.530;5.974;2022-07-10T11:24:40;102212.41;;;20.93;67.12
57562;BME280;43397;51.530;5.974;2022-07-10T11:27:15;102212.97;;;21.34;67.16
57562;BME280;43397;51.530;5.974;2022-07-10T11:32:15;102205.91;;;21.85;69.17
57562;BME280;43397;51.530;5.974;2022-07-10T11:34:41;102208.03;;;21.75;61.93
57562;BME280;43397;51.530;5.974;2022-07-10T11:37:14;102192.91;;;21.40;62.85
57562;BME280;43397;51.530;5.974;2022-07-10T11:39:41;102198.59;;;21.02;66.58
57562;BME280;43397;51.530;5.974;2022-07-10T11:42:07;102197.63;;;21.05;64.22
57562;BME280;43397;51.530;5.974;2022-07-10T11:44:33;102195.91;;;21.02;63.94
57562;BME280;43397;51.530;5.974;2022-07-10T11:46:59;102190.09;;;20.86;66.04
57562;BME280;43397;51.530;5.974;2022-07-10T11:49:25;102190.44;;;20.74;66.19
57562;BME280;43397;51.530;5.974;2022-07-10T11:51:51;102184.34;;;20.67;66.60
57562;BME280;43397;51.530;5.974;2022-07-10T11:54:17;102189.44;;;20.45;67.52
57562;BME280;43397;51.530;5.974;2022-07-10T11:59:12;102182.81;;;20.55;68.22
57562;BME280;43397;51.530;5.974;2022-07-10T12:01:41;102183.56;;;20.29;67.75
57562;BME280;43397;51.530;5.974;2022-07-10T12:04:08;102189.47;;;20.11;67.20
57562;BME280;43397;51.530;5.974;2022-07-10T12:06:36;102188.78;;;20.03;69.31
57562;BME280;43397;51.530;5.974;2022-07-10T12:09:03;102179.44;;;20.16;69.44
57562;BME280;43397;51.530;5.974;2022-07-10T12:11:30;102175.16;;;20.40;68.60
57562;BME280;43397;51.530;5.974;2022-07-10T12:14:11;102174.41;;;20.68;68.33
57562;BME280;43397;51.530;5.974;2022-07-10T12:16:37;102177.59;;;20.82;68.80
57562;BME280;43397;51.530;5.974;2022-07-10T12:19:05;102188.72;;;21.01;66.76
57562;BME280;43397;51.530;5.974;2022-07-10T12:21:32;102184.22;;;21.02;67.27
57562;BME280;43397;51.530;5.974;2022-07-10T12:23:58;102184.84;;;20.80;67.55
57562;BME280;43397;51.530;5.974;2022-07-10T12:26:32;102183.72;;;20.56;68.90
57562;BME280;43397;51.530;5.974;2022-07-10T12:28:58;102194.91;;;20.42;67.89
57562;BME280;43397;51.530;5.974;2022-07-10T12:31:26;102194.59;;;20.22;67.79
57562;BME280;43397;51.530;5.974;2022-07-10T12:33:54;102193.22;;;20.05;68.44
57562;BME280;43397;51.530;5.974;2022-07-10T12:36:20;102195.41;;;19.91;70.13
57562;BME280;43397;51.530;5.974;2022-07-10T12:38:53;102195.59;;;19.83;70.61
57562;BME280;43397;51.530;5.974;2022-07-10T12:41:19;102194.91;;;19.75;70.89
57562;BME280;43397;51.530;5.974;2022-07-10T12:46:12;102196.88;;;19.67;71.70
57562;BME280;43397;51.530;5.974;2022-07-10T12:48:39;102194.94;;;19.73;70.71
57562;BME280;43397;51.530;5.974;2022-07-10T12:51:25;102200.81;;;19.89;71.33
57562;BME280;43397;51.530;5.974;2022-07-10T12:53:51;102200.44;;;20.05;70.60
57562;BME280;43397;51.530;5.974;2022-07-10T12:56:27;102196.00;;;20.02;70.72
57562;BME280;43397;51.530;5.974;2022-07-10T12:58:53;102205.22;;;19.93;71.58
57562;BME280;43397;51.530;5.974;2022-07-10T13:01:19;102201.44;;;20.01;71.21
57562;BME280;43397;51.530;5.974;2022-07-10T13:09:02;102196.63;;;20.12;70.78
57562;BME280;43397;51.530;5.974;2022-07-10T13:11:28;102190.22;;;20.16;69.30
57562;BME280;43397;51.530;5.974;2022-07-10T13:13:54;102181.38;;;20.11;70.39
57562;BME280;43397;51.530;5.974;2022-07-10T13:16:21;102181.06;;;20.23;71.28
57562;BME280;43397;51.530;5.974;2022-07-10T13:18:47;102180.09;;;20.24;71.79
57562;BME280;43397;51.530;5.974;2022-07-10T13:21:13;102185.63;;;20.20;71.35
57562;BME280;43397;51.530;5.974;2022-07-10T13:23:39;102187.78;;;20.40;71.48
57562;BME280;43397;51.530;5.974;2022-07-10T13:26:06;102179.81;;;20.35;70.31
57562;BME280;43397;51.530;5.974;2022-07-10T13:30:57;102174.72;;;20.88;71.24
57562;BME280;43397;51.530;5.974;2022-07-10T13:33:23;102180.19;;;20.85;71.52
57562;BME280;43397;51.530;5.974;2022-07-10T13:35:49;102180.38;;;20.79;69.28
57562;BME280;43397;51.530;5.974;2022-07-10T13:38:15;102175.28;;;20.68;69.95
57562;BME280;43397;51.530;5.974;2022-07-10T13:40:41;102172.00;;;20.57;67.96
57562;BME280;43397;51.530;5.974;2022-07-10T13:43:09;102171.31;;;20.49;69.25
57562;BME280;43397;51.530;5.974;2022-07-10T13:45:35;102174.84;;;20.51;68.22
57562;BME280;43397;51.530;5.974;2022-07-10T13:48:02;102174.72;;;20.57;69.97
57562;BME280;43397;51.530;5.974;2022-07-10T13:50:28;102172.47;;;20.40;71.63
57562;BME280;43397;51.530;5.974;2022-07-10T13:52:54;102166.69;;;20.85;69.51